sensor_id;sensor_type;location;lat;lon;timestamp;P1;durP1;ratioP1;P2;durP2;ratioP2
60257;SDS011;46115;44.484;11.314;2023-06-22T00:03:50;7.38;;;5.22;;
60257;SDS011;46115;44.484;11.314;2023-06-22T00:07:52;9.43;;;5.28;;
60257;SDS011;46115;44.484;11.314;2023-06-22T00:11:55;14.68;;;5.57;;
60257;SDS011;46115;44.484;11.314;2023-06-22T00:15:59;11.60;;;5.20;;
60257;SDS011;46115;44.484;11.314;2023-06-22T00:20:01;11.20;;;5.10;;
60257;SDS011;46115;44.484;11.314;2023-06-22T00:24:07;9.32;;;5.13;;
60257;SDS011;46115;44.484;11.314;2023-06-22T00:28:10;8.65;;;5.90;;
60257;SDS011;46115;44.484;11.314;2023-06-22T00:32:14;12.40;;;5.30;;
60257;SDS011;46115;44.484;11.314;2023-06-22T00:36:18;7.68;;;5.28;;
60257;SDS011;46115;44.484;11.314;2023-06-22T00:40:20;10.43;;;5.63;;
60257;SDS011;46115;44.484;11.314;2023-06-22T00:44:23;8.32;;;5.60;;
60257;SDS011;46115;44.484;11.314;2023-06-22T00:48:27;9.77;;;5.50;;
60257;SDS011;46115;44.484;11.314;2023-06-22T00:52:29;8.02;;;5.35;;
60257;SDS011;46115;44.484;11.314;2023-06-22T00:56:34;9.45;;;5.45;;
60257;SDS011;46115;44.484;11.314;2023-06-22T01:00:38;8.77;;;5.47;;
60257;SDS011;46115;44.484;11.314;2023-06-22T01:04:43;9.75;;;5.57;;
60257;SDS011;46115;44.484;11.314;2023-06-22T01:08:46;11.02;;;5.88;;
60257;SDS011;46115;44.484;11.314;2023-06-22T01:12:55;14.05;;;5.70;;
60257;SDS011;46115;44.484;11.314;2023-06-22T01:17:02;8.63;;;5.60;;
60257;SDS011;46115;44.484;11.314;2023-06-22T01:21:10;8.63;;;5.82;;
60257;SDS011;46115;44.484;11.314;2023-06-22T01:25:19;9.45;;;5.90;;
60257;SDS011;46115;44.484;11.314;2023-06-22T01:29:28;10.45;;;5.63;;
60257;SDS011;46115;44.484;11.314;2023-06-22T01:33:34;12.57;;;5.78;;
60257;SDS011;46115;44.484;11.314;2023-06-22T01:37:39;9.38;;;5.70;;
60257;SDS011;46115;44.484;11.314;2023-06-22T01:41:41;8.43;;;5.25;;
60257;SDS011;46115;44.484;11.314;2023-06-22T01:45:46;10.93;;;5.72;;
60257;SDS011;46115;44.484;11.314;2023-06-22T01:49:49;9.55;;;6.15;;
60257;SDS011;46115;44.484;11.314;2023-06-22T01:53:55;8.93;;;5.25;;
60257;SDS011;46115;44.484;11.314;2023-06-22T01:57:57;9.27;;;5.50;;
60257;SDS011;46115;44.484;11.314;2023-06-22T02:02:02;8.60;;;5.30;;
60257;SDS011;46115;44.484;11.314;2023-06-22T02:06:10;7.13;;;5.20;;
60257;SDS011;46115;44.484;11.314;2023-06-22T02:10:20;7.32;;;5.15;;
60257;SDS011;46115;44.484;11.314;2023-06-22T02:14:25;8.68;;;5.32;;
60257;SDS011;46115;44.484;11.314;2023-06-22T02:18:30;12.43;;;5.10;;
60257;SDS011;46115;44.484;11.314;2023-06-22T02:22:33;7.75;;;5.10;;
60257;SDS011;46115;44.484;11.314;2023-06-22T02:26:35;6.45;;;5.18;;
60257;SDS011;46115;44.484;11.314;2023-06-22T02:30:40;9.10;;;5.10;;
60257;SDS011;46115;44.484;11.314;2023-06-22T02:34:44;10.80;;;5.10;;
60257;SDS011;46115;44.484;11.314;2023-06-22T02:38:50;13.82;;;5.25;;
60257;SDS011;46115;44.484;11.314;2023-06-22T02:42:52;6.05;;;4.90;;
60257;SDS011;46115;44.484;11.314;2023-06-22T02:46:55;10.15;;;5.57;;
60257;SDS011;46115;44.484;11.314;2023-06-22T02:50:59;11.43;;;4.95;;
60257;SDS011;46115;44.484;11.314;2023-06-22T02:55:02;6.53;;;5.10;;
60257;SDS011;46115;44.484;11.314;2023-06-22T02:59:05;8.02;;;5.47;;
60257;SDS011;46115;44.484;11.314;2023-06-22T03:03:12;8.98;;;5.15;;
60257;SDS011;46115;44.484;11.314;2023-06-22T03:07:15;6.35;;;5.10;;
60257;SDS011;46115;44.484;11.314;2023-06-22T03:11:19;9.48;;;5.50;;
60257;SDS011;46115;44.484;11.314;2023-06-22T03:15:22;9.23;;;5.50;;
60257;SDS011;46115;44.484;11.314;2023-06-22T03:19:26;9.65;;;5.68;;
60257;SDS011;46115;44.484;11.314;2023-06-22T03:23:31;8.48;;;5.20;;
60257;SDS011;46115;44.484;11.314;2023-06-22T03:27:34;10.68;;;5.75;;
60257;SDS011;46115;44.484;11.314;2023-06-22T03:31:36;10.20;;;5.57;;
60257;SDS011;46115;44.484;11.314;2023-06-22T03:35:41;8.55;;;5.40;;
60257;SDS011;46115;44.484;11.314;2023-06-22T03:39:47;7.70;;;5.15;;
60257;SDS011;46115;44.484;11.314;2023-06-22T03:43:50;8.48;;;5.35;;
60257;SDS011;46115;44.484;11.314;2023-06-22T03:47:53;8.80;;;5.35;;
60257;SDS011;46115;44.484;11.314;2023-06-22T03:51:55;5.55;;;4.93;;
60257;SDS011;46115;44.484;11.314;2023-06-22T03:55:59;7.75;;;4.88;;
60257;SDS011;46115;44.484;11.314;2023-06-22T04:00:02;12.20;;;5.50;;
60257;SDS011;46115;44.484;11.314;2023-06-22T04:04:13;16.30;;;5.87;;
60257;SDS011;46115;44.484;11.314;2023-06-22T04:08:15;8.95;;;5.07;;
60257;SDS011;46115;44.484;11.314;2023-06-22T04:12:19;7.93;;;5.43;;
60257;SDS011;46115;44.484;11.314;2023-06-22T04:16:22;7.93;;;5.07;;
60257;SDS011;46115;44.484;11.314;2023-06-22T04:20:24;8.95;;;4.88;;
60257;SDS011;46115;44.484;11.314;2023-06-22T04:24:27;6.90;;;5.00;;
60257;SDS011;46115;44.484;11.314;2023-06-22T04:28:31;6.75;;;5.00;;
60257;SDS011;46115;44.484;11.314;2023-06-22T04:32:35;5.80;;;5.20;;
60257;SDS011;46115;44.484;11.314;2023-06-22T04:36:39;8.68;;;4.95;;
60257;SDS011;46115;44.484;11.314;2023-06-22T04:40:42;8.35;;;5.18;;
60257;SDS011;46115;44.484;11.314;2023-06-22T04:44:46;10.80;;;5.00;;
60257;SDS011;46115;44.484;11.314;2023-06-22T04:48:48;8.57;;;5.10;;
60257;SDS011;46115;44.484;11.314;2023-06-22T04:52:51;7.68;;;4.88;;
60257;SDS011;46115;44.484;11.314;2023-06-22T04:56:54;7.65;;;5.07;;
60257;SDS011;46115;44.484;11.314;2023-06-22T05:00:59;7.18;;;4.70;;
60257;SDS011;46115;44.484;11.314;2023-06-22T05:05:02;9.10;;;5.10;;
60257;SDS011;46115;44.484;11.314;2023-06-22T05:09:07;5.43;;;4.68;;
60257;SDS011;46115;44.484;11.314;2023-06-22T05:13:10;8.27;;;4.85;;
60257;SDS011;46115;44.484;11.314;2023-06-22T05:17:14;7.20;;;5.10;;
60257;SDS011;46115;44.484;11.314;2023-06-22T05:21:23;9.00;;;4.80;;
60257;SDS011;46115;44.484;11.314;2023-06-22T05:25:28;7.38;;;4.88;;
60257;SDS011;46115;44.484;11.314;2023-06-22T05:29:33;6.57;;;4.22;;
60257;SDS011;46115;44.484;11.314;2023-06-22T05:33:37;8.18;;;4.70;;
60257;SDS011;46115;44.484;11.314;2023-06-22T05:37:40;9.00;;;4.90;;
60257;SDS011;46115;44.484;11.314;2023-06-22T05:41:44;8.75;;;4.70;;
60257;SDS011;46115;44.484;11.314;2023-06-22T05:45:47;6.72;;;5.05;;
60257;SDS011;46115;44.484;11.314;2023-06-22T05:49:51;10.15;;;4.80;;
60257;SDS011;46115;44.484;11.314;2023-06-22T05:53:53;6.20;;;4.68;;
60257;SDS011;46115;44.484;11.314;2023-06-22T05:57:56;7.18;;;4.88;;
60257;SDS011;46115;44.484;11.314;2023-06-22T06:01:58;8.50;;;4.85;;
60257;SDS011;46115;44.484;11.314;2023-06-22T06:06:02;8.10;;;4.43;;
60257;SDS011;46115;44.484;11.314;2023-06-22T06:10:05;9.05;;;4.72;;
60257;SDS011;46115;44.484;11.314;2023-06-22T06:14:08;5.68;;;4.30;;
60257;SDS011;46115;44.484;11.314;2023-06-22T06:18:11;6.60;;;4.30;;
60257;SDS011;46115;44.484;11.314;2023-06-22T06:22:15;6.97;;;4.50;;
60257;SDS011;46115;44.484;11.314;2023-06-22T06:26:17;10.10;;;4.70;;
60257;SDS011;46115;44.484;11.314;2023-06-22T06:30:28;9.18;;;4.72;;
60257;SDS011;46115;44.484;11.314;2023-06-22T06:34:31;5.85;;;4.10;;
60257;SDS011;46115;44.484;11.314;2023-06-22T06:38:35;8.27;;;4.30;;
60257;SDS011;46115;44.484;11.314;2023-06-22T06:42:38;9.30;;;4.40;;
60257;SDS011;46115;44.484;11.314;2023-06-22T06:46:45;8.07;;;4.68;;
60257;SDS011;46115;44.484;11.314;2023-06-22T06:50:48;10.38;;;4.70;;
60257;SDS011;46115;44.484;11.314;2023-06-22T06:54:52;16.38;;;4.72;;
60257;SDS011;46115;44.484;11.314;2023-06-22T06:58:54;13.63;;;4.40;;
60257;SDS011;46115;44.484;11.314;2023-06-22T07:02:57;11.73;;;4.95;;
60257;SDS011;46115;44.484;11.314;2023-06-22T07:07:00;7.78;;;4.25;;
60257;SDS011;46115;44.484;11.314;2023-06-22T07:11:05;9.98;;;4.30;;
60257;SDS011;46115;44.484;11.314;2023-06-22T07:15:08;8.57;;;4.72;;
60257;SDS011;46115;44.484;11.314;2023-06-22T07:19:13;8.88;;;3.90;;
60257;SDS011;46115;44.484;11.314;2023-06-22T07:23:15;8.63;;;4.22;;
60257;SDS011;46115;44.484;11.314;2023-06-22T07:27:20;7.30;;;4.20;;
60257;SDS011;46115;44.484;11.314;2023-06-22T07:31:23;8.88;;;4.05;;
60257;SDS011;46115;44.484;11.314;2023-06-22T07:35:26;5.03;;;3.63;;
60257;SDS011;46115;44.484;11.314;2023-06-22T07:39:29;5.43;;;3.85;;
60257;SDS011;46115;44.484;11.314;2023-06-22T07:43:33;5.60;;;3.88;;
60257;SDS011;46115;44.484;11.314;2023-06-22T07:47:37;8.75;;;4.13;;
60257;SDS011;46115;44.484;11.314;2023-06-22T07:51:40;7.00;;;3.88;;
60257;SDS011;46115;44.484;11.314;2023-06-22T07:55:43;7.97;;;4.13;;
60257;SDS011;46115;44.484;11.314;2023-06-22T07:59:47;11.23;;;4.30;;
60257;SDS011;46115;44.484;11.314;2023-06-22T08:03:49;12.00;;;4.80;;
60257;SDS011;46115;44.484;11.314;2023-06-22T08:07:52;10.95;;;4.25;;
60257;SDS011;46115;44.484;11.314;2023-06-22T08:11:55;9.68;;;4.78;;
60257;SDS011;46115;44.484;11.314;2023-06-22T08:15:59;7.72;;;4.32;;
60257;SDS011;46115;44.484;11.314;2023-06-22T08:20:02;11.10;;;5.00;;
60257;SDS011;46115;44.484;11.314;2023-06-22T08:24:10;13.25;;;4.68;;
60257;SDS011;46115;44.484;11.314;2023-06-22T08:28:12;11.07;;;4.72;;
60257;SDS011;46115;44.484;11.314;2023-06-22T08:32:16;8.40;;;4.30;;
60257;SDS011;46115;44.484;11.314;2023-06-22T08:36:19;9.73;;;4.72;;
60257;SDS011;46115;44.484;11.314;2023-06-22T08:40:21;8.75;;;4.55;;
60257;SDS011;46115;44.484;11.314;2023-06-22T08:44:25;10.20;;;4.70;;
60257;SDS011;46115;44.484;11.314;2023-06-22T08:48:29;11.88;;;4.47;;
60257;SDS011;46115;44.484;11.314;2023-06-22T08:52:32;9.48;;;4.47;;
60257;SDS011;46115;44.484;11.314;2023-06-22T08:56:34;5.90;;;4.40;;
60257;SDS011;46115;44.484;11.314;2023-06-22T09:00:37;9.00;;;4.78;;
60257;SDS011;46115;44.484;11.314;2023-06-22T09:04:40;9.40;;;5.03;;
60257;SDS011;46115;44.484;11.314;2023-06-22T09:08:43;8.85;;;4.72;;
60257;SDS011;46115;44.484;11.314;2023-06-22T09:12:47;7.55;;;4.90;;
60257;SDS011;46115;44.484;11.314;2023-06-22T09:16:49;11.60;;;5.30;;
60257;SDS011;46115;44.484;11.314;2023-06-22T09:20:54;11.77;;;4.45;;
60257;SDS011;46115;44.484;11.314;2023-06-22T09:24:56;8.88;;;4.25;;
60257;SDS011;46115;44.484;11.314;2023-06-22T09:29:00;9.60;;;4.00;;
60257;SDS011;46115;44.484;11.314;2023-06-22T09:33:03;6.82;;;3.72;;
60257;SDS011;46115;44.484;11.314;2023-06-22T09:37:07;6.07;;;3.55;;
60257;SDS011;46115;44.484;11.314;2023-06-22T09:41:09;7.32;;;4.00;;
60257;SDS011;46115;44.484;11.314;2023-06-22T09:45:12;7.78;;;3.70;;
60257;SDS011;46115;44.484;11.314;2023-06-22T09:49:14;6.40;;;4.10;;
60257;SDS011;46115;44.484;11.314;2023-06-22T09:53:18;7.72;;;4.10;;
60257;SDS011;46115;44.484;11.314;2023-06-22T09:57:21;7.97;;;4.00;;
60257;SDS011;46115;44.484;11.314;2023-06-22T10:01:23;5.45;;;3.85;;
60257;SDS011;46115;44.484;11.314;2023-06-22T10:05:26;12.02;;;4.70;;
60257;SDS011;46115;44.484;11.314;2023-06-22T10:09:30;5.18;;;3.83;;
60257;SDS011;46115;44.484;11.314;2023-06-22T10:13:33;6.93;;;4.07;;
60257;SDS011;46115;44.484;11.314;2023-06-22T10:17:35;10.35;;;3.85;;
60257;SDS011;46115;44.484;11.314;2023-06-22T10:21:38;7.13;;;3.65;;
60257;SDS011;46115;44.484;11.314;2023-06-22T10:25:42;12.10;;;4.25;;
60257;SDS011;46115;44.484;11.314;2023-06-22T10:29:44;8.65;;;4.18;;
60257;SDS011;46115;44.484;11.314;2023-06-22T10:33:47;6.75;;;4.30;;
60257;SDS011;46115;44.484;11.314;2023-06-22T10:37:52;6.43;;;4.20;;
60257;SDS011;46115;44.484;11.314;2023-06-22T10:41:56;10.40;;;4.55;;
60257;SDS011;46115;44.484;11.314;2023-06-22T10:45:59;8.18;;;4.07;;
60257;SDS011;46115;44.484;11.314;2023-06-22T10:50:02;7.68;;;4.18;;
60257;SDS011;46115;44.484;11.314;2023-06-22T10:54:05;10.98;;;4.68;;
60257;SDS011;46115;44.484;11.314;2023-06-22T10:58:09;10.77;;;4.25;;
60257;SDS011;46115;44.484;11.314;2023-06-22T11:02:12;8.27;;;4.60;;
60257;SDS011;46115;44.484;11.314;2023-06-22T11:06:14;9.18;;;4.43;;
60257;SDS011;46115;44.484;11.314;2023-06-22T11:10:17;14.77;;;4.63;;
60257;SDS011;46115;44.484;11.314;2023-06-22T11:14:21;10.15;;;4.50;;
60257;SDS011;46115;44.484;11.314;2023-06-22T11:18:24;10.23;;;4.70;;
60257;SDS011;46115;44.484;11.314;2023-06-22T11:22:26;9.50;;;4.90;;
60257;SDS011;46115;44.484;11.314;2023-06-22T11:26:30;11.43;;;5.25;;
60257;SDS011;46115;44.484;11.314;2023-06-22T11:30:35;8.02;;;5.30;;
60257;SDS011;46115;44.484;11.314;2023-06-22T11:34:37;13.65;;;5.47;;
60257;SDS011;46115;44.484;11.314;2023-06-22T11:38:40;16.27;;;5.50;;
60257;SDS011;46115;44.484;11.314;2023-06-22T11:42:43;16.25;;;5.93;;
60257;SDS011;46115;44.484;11.314;2023-06-22T11:46:47;9.38;;;5.50;;
60257;SDS011;46115;44.484;11.314;2023-06-22T11:50:49;13.80;;;5.90;;
60257;SDS011;46115;44.484;11.314;2023-06-22T11:54:52;9.43;;;5.20;;
60257;SDS011;46115;44.484;11.314;2023-06-22T11:58:55;8.48;;;4.80;;
60257;SDS011;46115;44.484;11.314;2023-06-22T12:03:02;10.18;;;4.60;;
60257;SDS011;46115;44.484;11.314;2023-06-22T12:07:05;8.57;;;4.70;;
60257;SDS011;46115;44.484;11.314;2023-06-22T12:11:07;10.23;;;4.28;;
60257;SDS011;46115;44.484;11.314;2023-06-22T12:15:10;11.10;;;3.90;;
60257;SDS011;46115;44.484;11.314;2023-06-22T12:19:14;13.77;;;3.97;;
60257;SDS011;46115;44.484;11.314;2023-06-22T12:23:17;8.60;;;4.10;;
60257;SDS011;46115;44.484;11.314;2023-06-22T12:27:20;10.80;;;3.70;;
60257;SDS011;46115;44.484;11.314;2023-06-22T12:31:23;10.60;;;4.13;;
60257;SDS011;46115;44.484;11.314;2023-06-22T12:35:27;7.45;;;4.00;;
60257;SDS011;46115;44.484;11.314;2023-06-22T12:39:30;11.05;;;4.55;;
60257;SDS011;46115;44.484;11.314;2023-06-22T12:43:32;14.95;;;4.57;;
60257;SDS011;46115;44.484;11.314;2023-06-22T12:47:35;10.52;;;4.00;;
60257;SDS011;46115;44.484;11.314;2023-06-22T12:51:40;8.10;;;4.40;;
60257;SDS011;46115;44.484;11.314;2023-06-22T12:55:44;9.60;;;4.35;;
60257;SDS011;46115;44.484;11.314;2023-06-22T12:59:46;7.03;;;4.25;;
60257;SDS011;46115;44.484;11.314;2023-06-22T13:03:49;5.53;;;3.70;;
60257;SDS011;46115;44.484;11.314;2023-06-22T13:07:53;9.85;;;4.00;;
60257;SDS011;46115;44.484;11.314;2023-06-22T13:11:55;9.27;;;3.45;;
60257;SDS011;46115;44.484;11.314;2023-06-22T13:15:58;9.02;;;3.45;;
60257;SDS011;46115;44.484;11.314;2023-06-22T13:20:01;7.90;;;3.67;;
60257;SDS011;46115;44.484;11.314;2023-06-22T13:24:06;9.85;;;3.38;;
60257;SDS011;46115;44.484;11.314;2023-06-22T13:28:09;8.15;;;3.72;;
60257;SDS011;46115;44.484;11.314;2023-06-22T13:32:14;6.95;;;3.45;;
60257;SDS011;46115;44.484;11.314;2023-06-22T13:36:16;6.72;;;3.55;;
60257;SDS011;46115;44.484;11.314;2023-06-22T13:40:20;6.85;;;3.50;;
60257;SDS011;46115;44.484;11.314;2023-06-22T13:44:23;6.55;;;3.42;;
60257;SDS011;46115;44.484;11.314;2023-06-22T13:48:29;12.18;;;3.78;;
60257;SDS011;46115;44.484;11.314;2023-06-22T13:52:32;8.50;;;3.70;;
60257;SDS011;46115;44.484;11.314;2023-06-22T13:56:35;12.48;;;3.50;;
60257;SDS011;46115;44.484;11.314;2023-06-22T14:00:38;9.02;;;3.50;;
60257;SDS011;46115;44.484;11.314;2023-06-22T14:04:41;12.32;;;3.33;;
60257;SDS011;46115;44.484;11.314;2023-06-22T14:08:43;7.05;;;3.50;;
60257;SDS011;46115;44.484;11.314;2023-06-22T14:12:47;10.32;;;3.53;;
60257;SDS011;46115;44.484;11.314;2023-06-22T14:16:50;10.75;;;3.88;;
60257;SDS011;46115;44.484;11.314;2023-06-22T14:20:52;9.05;;;3.75;;
60257;SDS011;46115;44.484;11.314;2023-06-22T14:24:55;11.85;;;3.88;;
60257;SDS011;46115;44.484;11.314;2023-06-22T14:28:59;9.25;;;3.60;;
60257;SDS011;46115;44.484;11.314;2023-06-22T14:33:02;12.88;;;3.80;;
60257;SDS011;46115;44.484;11.314;2023-06-22T14:37:05;9.10;;;3.70;;
60257;SDS011;46115;44.484;11.314;2023-06-22T14:41:08;8.13;;;3.60;;
60257;SDS011;46115;44.484;11.314;2023-06-22T14:45:12;10.65;;;3.72;;
60257;SDS011;46115;44.484;11.314;2023-06-22T14:49:15;7.38;;;3.80;;
60257;SDS011;46115;44.484;11.314;2023-06-22T14:53:17;13.52;;;3.88;;
60257;SDS011;46115;44.484;11.314;2023-06-22T14:57:20;8.60;;;3.45;;
60257;SDS011;46115;44.484;11.314;2023-06-22T15:01:25;12.25;;;3.95;;
60257;SDS011;46115;44.484;11.314;2023-06-22T15:05:27;9.07;;;3.60;;
60257;SDS011;46115;44.484;11.314;2023-06-22T15:09:30;11.63;;;3.78;;
60257;SDS011;46115;44.484;11.314;2023-06-22T15:13:34;12.25;;;3.90;;
60257;SDS011;46115;44.484;11.314;2023-06-22T15:17:38;9.55;;;3.42;;
60257;SDS011;46115;44.484;11.314;2023-06-22T15:21:40;14.45;;;4.13;;
60257;SDS011;46115;44.484;11.314;2023-06-22T15:25:43;12.52;;;4.25;;
60257;SDS011;46115;44.484;11.314;2023-06-22T15:29:46;17.08;;;4.68;;
60257;SDS011;46115;44.484;11.314;2023-06-22T15:33:50;14.25;;;4.25;;
60257;SDS011;46115;44.484;11.314;2023-06-22T15:37:53;17.85;;;5.50;;
60257;SDS011;46115;44.484;11.314;2023-06-22T15:41:55;11.30;;;4.15;;
60257;SDS011;46115;44.484;11.314;2023-06-22T15:45:58;18.98;;;5.50;;
60257;SDS011;46115;44.484;11.314;2023-06-22T15:50:02;13.13;;;4.40;;
60257;SDS011;46115;44.484;11.314;2023-06-22T15:54:04;12.45;;;4.32;;
60257;SDS011;46115;44.484;11.314;2023-06-22T15:58:07;18.75;;;5.15;;
60257;SDS011;46115;44.484;11.314;2023-06-22T16:02:11;15.55;;;5.50;;
60257;SDS011;46115;44.484;11.314;2023-06-22T16:06:15;13.68;;;4.53;;
60257;SDS011;46115;44.484;11.314;2023-06-22T16:10:17;14.20;;;5.07;;
60257;SDS011;46115;44.484;11.314;2023-06-22T16:14:20;16.30;;;4.90;;
60257;SDS011;46115;44.484;11.314;2023-06-22T16:18:23;13.85;;;4.80;;
60257;SDS011;46115;44.484;11.314;2023-06-22T16:22:27;12.60;;;5.10;;
60257;SDS011;46115;44.484;11.314;2023-06-22T16:26:29;11.48;;;5.20;;
60257;SDS011;46115;44.484;11.314;2023-06-22T16:30:32;15.38;;;5.20;;
60257;SDS011;46115;44.484;11.314;2023-06-22T16:34:35;12.20;;;5.18;;
60257;SDS011;46115;44.484;11.314;2023-06-22T16:38:39;9.27;;;4.60;;
60257;SDS011;46115;44.484;11.314;2023-06-22T16:42:43;14.55;;;4.80;;
60257;SDS011;46115;44.484;11.314;2023-06-22T16:46:47;11.98;;;5.03;;
60257;SDS011;46115;44.484;11.314;2023-06-22T16:50:50;11.30;;;4.30;;
60257;SDS011;46115;44.484;11.314;2023-06-22T16:54:54;10.68;;;4.75;;
60257;SDS011;46115;44.484;11.314;2023-06-22T16:58:57;10.05;;;4.65;;
60257;SDS011;46115;44.484;11.314;2023-06-22T17:03:01;13.80;;;4.70;;
60257;SDS011;46115;44.484;11.314;2023-06-22T17:07:08;14.00;;;5.10;;
60257;SDS011;46115;44.484;11.314;2023-06-22T17:11:14;11.02;;;4.60;;
60257;SDS011;46115;44.484;11.314;2023-06-22T17:15:17;12.77;;;4.53;;
60257;SDS011;46115;44.484;11.314;2023-06-22T17:19:23;12.25;;;4.38;;
60257;SDS011;46115;44.484;11.314;2023-06-22T17:23:26;15.52;;;5.00;;
60257;SDS011;46115;44.484;11.314;2023-06-22T17:27:30;14.23;;;4.60;;
60257;SDS011;46115;44.484;11.314;2023-06-22T17:31:35;16.65;;;4.80;;
60257;SDS011;46115;44.484;11.314;2023-06-22T17:35:45;13.90;;;4.80;;
60257;SDS011;46115;44.484;11.314;2023-06-22T17:39:51;10.13;;;4.47;;
60257;SDS011;46115;44.484;11.314;2023-06-22T17:43:55;12.40;;;4.57;;
60257;SDS011;46115;44.484;11.314;2023-06-22T17:48:00;17.45;;;5.00;;
60257;SDS011;46115;44.484;11.314;2023-06-22T17:52:02;12.98;;;4.80;;
60257;SDS011;46115;44.484;11.314;2023-06-22T17:56:06;11.70;;;4.60;;
60257;SDS011;46115;44.484;11.314;2023-06-22T18:00:12;9.98;;;4.50;;
60257;SDS011;46115;44.484;11.314;2023-06-22T18:04:15;13.32;;;4.78;;
60257;SDS011;46115;44.484;11.314;2023-06-22T18:08:21;10.10;;;4.53;;
60257;SDS011;46115;44.484;11.314;2023-06-22T18:12:27;10.80;;;5.00;;
60257;SDS011;46115;44.484;11.314;2023-06-22T18:16:32;12.65;;;4.93;;
60257;SDS011;46115;44.484;11.314;2023-06-22T18:20:36;13.65;;;4.90;;
60257;SDS011;46115;44.484;11.314;2023-06-22T18:24:41;11.93;;;4.90;;
60257;SDS011;46115;44.484;11.314;2023-06-22T18:28:45;10.05;;;4.93;;
60257;SDS011;46115;44.484;11.314;2023-06-22T18:32:49;12.90;;;4.97;;
60257;SDS011;46115;44.484;11.314;2023-06-22T18:36:53;11.38;;;4.90;;
60257;SDS011;46115;44.484;11.314;2023-06-22T18:41:01;17.75;;;4.75;;
60257;SDS011;46115;44.484;11.314;2023-06-22T18:45:06;10.88;;;4.72;;
60257;SDS011;46115;44.484;11.314;2023-06-22T18:49:30;12.15;;;4.63;;
60257;SDS011;46115;44.484;11.314;2023-06-22T18:53:33;20.77;;;4.70;;
60257;SDS011;46115;44.484;11.314;2023-06-22T18:57:36;14.15;;;4.88;;
60257;SDS011;46115;44.484;11.314;2023-06-22T19:01:38;11.77;;;4.40;;
60257;SDS011;46115;44.484;11.314;2023-06-22T19:05:43;11.52;;;5.18;;
60257;SDS011;46115;44.484;11.314;2023-06-22T19:09:50;9.35;;;4.60;;
60257;SDS011;46115;44.484;11.314;2023-06-22T19:14:25;15.18;;;5.35;;
60257;SDS011;46115;44.484;11.314;2023-06-22T19:18:31;17.48;;;5.35;;
60257;SDS011;46115;44.484;11.314;2023-06-22T19:22:46;12.20;;;4.93;;
60257;SDS011;46115;44.484;11.314;2023-06-22T19:26:54;15.25;;;5.13;;
60257;SDS011;46115;44.484;11.314;2023-06-22T19:30:57;15.88;;;5.47;;
60257;SDS011;46115;44.484;11.314;2023-06-22T19:35:01;9.25;;;4.57;;
60257;SDS011;46115;44.484;11.314;2023-06-22T19:39:06;9.73;;;4.20;;
60257;SDS011;46115;44.484;11.314;2023-06-22T19:43:09;15.48;;;4.90;;
60257;SDS011;46115;44.484;11.314;2023-06-22T19:47:12;9.40;;;4.60;;
60257;SDS011;46115;44.484;11.314;2023-06-22T19:51:16;13.35;;;4.10;;
60257;SDS011;46115;44.484;11.314;2023-06-22T19:55:20;11.32;;;4.63;;
60257;SDS011;46115;44.484;11.314;2023-06-22T22:06:08;9.48;;;2.90;;
60257;SDS011;46115;44.484;11.314;2023-06-22T22:10:11;7.32;;;3.05;;
60257;SDS011;46115;44.484;11.314;2023-06-22T22:14:15;6.15;;;3.20;;
60257;SDS011;46115;44.484;11.314;2023-06-22T22:18:18;5.70;;;2.80;;
60257;SDS011;46115;44.484;11.314;2023-06-22T22:22:21;8.20;;;2.97;;
60257;SDS011;46115;44.484;11.314;2023-06-22T22:26:25;6.18;;;2.72;;
60257;SDS011;46115;44.484;11.314;2023-06-22T22:30:27;7.25;;;2.85;;
60257;SDS011;46115;44.484;11.314;2023-06-22T22:34:30;5.43;;;2.72;;
60257;SDS011;46115;44.484;11.314;2023-06-22T22:38:34;6.20;;;2.90;;
60257;SDS011;46115;44.484;11.314;2023-06-22T22:42:37;6.75;;;2.97;;
60257;SDS011;46115;44.484;11.314;2023-06-22T22:46:39;10.48;;;2.65;;
60257;SDS011;46115;44.484;11.314;2023-06-22T22:50:42;8.30;;;3.00;;
60257;SDS011;46115;44.484;11.314;2023-06-22T22:54:46;7.47;;;2.88;;
60257;SDS011;46115;44.484;11.314;2023-06-22T22:58:48;10.77;;;3.10;;
60257;SDS011;46115;44.484;11.314;2023-06-22T23:02:51;6.43;;;2.60;;
60257;SDS011;46115;44.484;11.314;2023-06-22T23:06:53;13.63;;;2.88;;
60257;SDS011;46115;44.484;11.314;2023-06-22T23:10:57;7.55;;;2.67;;
60257;SDS011;46115;44.484;11.314;2023-06-22T23:15:00;5.65;;;2.90;;
60257;SDS011;46115;44.484;11.314;2023-06-22T23:19:03;6.80;;;3.00;;
60257;SDS011;46115;44.484;11.314;2023-06-22T23:23:06;6.82;;;3.20;;
60257;SDS011;46115;44.484;11.314;2023-06-22T23:27:11;11.35;;;3.60;;
60257;SDS011;46115;44.484;11.314;2023-06-22T23:31:16;5.60;;;2.90;;
60257;SDS011;46115;44.484;11.314;2023-06-22T23:35:18;4.97;;;2.85;;
60257;SDS011;46115;44.484;11.314;2023-06-22T23:39:21;8.57;;;2.90;;
60257;SDS011;46115;44.484;11.314;2023-06-22T23:43:26;7.32;;;2.95;;
60257;SDS011;46115;44.484;11.314;2023-06-22T23:47:29;8.18;;;2.80;;
60257;SDS011;46115;44.484;11.314;2023-06-22T23:51:31;9.27;;;3.22;;
60257;SDS011;46115;44.484;11.314;2023-06-22T23:55:34;10.15;;;3.08;;
60257;SDS011;46115;44.484;11.314;2023-06-22T23:59:39;6.07;;;2.90;;
